Time;durP1;ratioP1;P1;durP2;ratioP2;P2;SDS_P1;SDS_P2;PMS_P1;PMS_P2;Temp;Humidity;BMP_temperature;BMP_pressure;BME280_temperature;BME280_humidity;BME280_pressure;Samples;Min_cycle;Max_cycle;Signal;HPM_P1;HPM_P2
2021/12/16 00:09:33;;;;;;;;;;;15.20;63.00;;;;;;6212273;23;20237;-93
2021/12/16 00:29:03;;;;;;;;;;;15.20;62.90;;;;;;6224499;23;19935;-92
2021/12/16 00:31:25;;;;;;;;;;;15.20;62.80;;;;;;6223556;23;19914;-91
2021/12/16 00:34:02;;;;;;;;;;;15.10;62.80;;;;;;6197035;23;19908;-91
2021/12/16 00:36:35;;;;;;;;;;;15.10;62.70;;;;;;6221607;23;20448;-91
2021/12/16 00:39:09;;;;;;;;;;;15.10;62.80;;;;;;6197744;23;20209;-91
2021/12/16 00:41:35;;;;;;;;;;;15.10;62.80;;;;;;6195329;23;19943;-90
2021/12/16 00:44:22;;;;;;;;;;;15.10;62.90;;;;;;6194813;23;20309;-89
2021/12/16 00:54:37;;;;;;;;;;;15.00;62.50;;;;;;6223046;23;19915;-91
2021/12/16 00:57:09;;;;;;;;;;;14.90;62.50;;;;;;6195167;23;19912;-90
2021/12/16 00:59:38;;;;;;;;;;;14.90;62.60;;;;;;6195599;23;19920;-93
2021/12/16 01:35:02;;;;;;;;;;;14.80;62.90;;;;;;6211881;23;19919;-92
2021/12/16 01:50:53;;;;;;;;;;;14.90;63.10;;;;;;6221836;23;19963;-91
2021/12/16 01:55:59;;;;;;;;;;;15.00;63.20;;;;;;6221323;23;19970;-91
2021/12/16 01:58:27;;;;;;;;;;;15.00;63.20;;;;;;6194420;23;19912;-91
2021/12/16 02:01:09;;;;;;;;;;;15.00;63.00;;;;;;6195345;23;19912;-92
2021/12/16 02:03:44;;;;;;;;;;;15.00;63.00;;;;;;6194805;23;19919;-92
2021/12/16 02:08:45;;;;;;;;;;;15.00;63.20;;;;;;6228698;23;19912;-92
2021/12/16 02:11:31;;;;;;;;;;;15.00;63.10;;;;;;6194565;23;19908;-92
2021/12/16 02:36:01;;;;;;;;;;;14.70;62.90;;;;;;6223736;23;19982;-91
2021/12/16 02:38:30;;;;;;;;;;;14.70;62.90;;;;;;6221425;23;19908;-91
2021/12/16 02:40:55;;;;;;;;;;;14.60;62.60;;;;;;6222168;23;19916;-92
2021/12/16 02:43:54;;;;;;;;;;;14.60;62.50;;;;;;6223057;23;19947;-92
2021/12/16 02:48:41;;;;;;;;;;;14.60;62.70;;;;;;6223828;23;19908;-91
2021/12/16 02:51:26;;;;;;;;;;;14.60;63.00;;;;;;6195945;23;19940;-92
2021/12/16 02:53:54;;;;;;;;;;;14.60;63.20;;;;;;6222407;23;20320;-92
2021/12/16 02:56:19;;;;;;;;;;;14.70;63.40;;;;;;6197132;23;19908;-90
2021/12/16 02:58:47;;;;;;;;;;;14.70;63.40;;;;;;6197427;23;19912;-91
2021/12/16 03:01:25;;;;;;;;;;;14.70;63.50;;;;;;6224340;23;19908;-91
2021/12/16 03:03:52;;;;;;;;;;;14.80;63.50;;;;;;6197625;23;19955;-91
2021/12/16 03:06:17;;;;;;;;;;;14.80;63.50;;;;;;6223903;23;19934;-91
2021/12/16 03:08:46;;;;;;;;;;;14.90;63.60;;;;;;6197010;23;19912;-91
2021/12/16 03:11:33;;;;;;;;;;;15.00;63.50;;;;;;6196980;23;19904;-91
2021/12/16 03:17:11;;;;;;;;;;;15.10;63.50;;;;;;6230576;23;19911;-92
2021/12/16 03:19:52;;;;;;;;;;;15.10;63.50;;;;;;6186540;23;19919;-91
2021/12/16 03:22:43;;;;;;;;;;;15.20;63.50;;;;;;6196743;23;19916;-92
2021/12/16 03:25:19;;;;;;;;;;;15.20;63.50;;;;;;6222399;23;19938;-92
2021/12/16 03:30:59;;;;;;;;;;;15.30;63.30;;;;;;6222359;23;20387;-92
2021/12/16 03:33:48;;;;;;;;;;;15.40;63.30;;;;;;6222919;23;20002;-91
2021/12/16 03:36:48;;;;;;;;;;;15.40;63.10;;;;;;6196047;23;20241;-91
2021/12/16 03:39:06;;;;;;;;;;;15.40;63.00;;;;;;6220541;23;19923;-92
2021/12/16 03:41:31;;;;;;;;;;;15.40;62.90;;;;;;6197235;23;19922;-92
2021/12/16 03:43:59;;;;;;;;;;;15.40;62.60;;;;;;6223443;23;19904;-92
2021/12/16 03:46:26;;;;;;;;;;;15.50;62.70;;;;;;6198143;23;19916;-92
2021/12/16 03:48:58;;;;;;;;;;;15.50;62.80;;;;;;6197282;23;19983;-91
2021/12/16 03:51:26;;;;;;;;;;;15.50;62.70;;;;;;6196307;23;19997;-92
2021/12/16 03:53:53;;;;;;;;;;;15.50;62.70;;;;;;6194693;23;19962;-91
2021/12/16 03:56:18;;;;;;;;;;;15.50;62.70;;;;;;6195518;23;19930;-91
2021/12/16 03:58:44;;;;;;;;;;;15.50;62.80;;;;;;6222686;23;20316;-91
2021/12/16 04:01:15;;;;;;;;;;;15.50;62.80;;;;;;6223312;23;19947;-92
2021/12/16 04:03:44;;;;;;;;;;;15.50;62.70;;;;;;6196673;23;19908;-92
2021/12/16 04:06:10;;;;;;;;;;;15.50;62.60;;;;;;6196652;23;19908;-90
2021/12/16 04:08:36;;;;;;;;;;;15.50;62.50;;;;;;6221430;23;19912;-90
2021/12/16 04:11:06;;;;;;;;;;;15.50;62.70;;;;;;6192570;23;19904;-90
2021/12/16 04:13:36;;;;;;;;;;;15.50;62.70;;;;;;6216650;23;19915;-91
2021/12/16 04:16:03;;;;;;;;;;;15.60;62.50;;;;;;6218484;23;19912;-91
2021/12/16 04:18:28;;;;;;;;;;;15.50;62.60;;;;;;6194269;23;19915;-91
2021/12/16 04:20:54;;;;;;;;;;;15.60;62.60;;;;;;6218713;23;19947;-91
2021/12/16 04:23:19;;;;;;;;;;;15.60;62.60;;;;;;6193359;23;19903;-92
2021/12/16 04:25:47;;;;;;;;;;;15.50;62.60;;;;;;6218574;23;19998;-92
2021/12/16 04:28:15;;;;;;;;;;;15.50;62.60;;;;;;6193231;23;19908;-92
2021/12/16 04:30:41;;;;;;;;;;;15.60;62.60;;;;;;6193950;23;19927;-92
2021/12/16 04:33:06;;;;;;;;;;;15.50;62.60;;;;;;6220316;23;19904;-92
2021/12/16 04:35:32;;;;;;;;;;;15.50;62.50;;;;;;6193136;23;20218;-92
2021/12/16 04:37:58;;;;;;;;;;;15.50;62.50;;;;;;6218127;23;19908;-91
2021/12/16 04:40:26;;;;;;;;;;;15.50;62.60;;;;;;6220721;23;20034;-92
2021/12/16 04:42:58;;;;;;;;;;;15.50;62.70;;;;;;6219065;23;20313;-92
2021/12/16 04:45:24;;;;;;;;;;;15.50;62.80;;;;;;6192381;23;20276;-92
2021/12/16 04:47:49;;;;;;;;;;;15.50;62.80;;;;;;6217093;23;19963;-92
2021/12/16 04:50:15;;;;;;;;;;;15.50;62.70;;;;;;6220187;23;19939;-92
2021/12/16 04:52:40;;;;;;;;;;;15.50;62.60;;;;;;6219732;23;20233;-92
2021/12/16 04:55:07;;;;;;;;;;;15.50;62.70;;;;;;6193866;23;19912;-92
2021/12/16 04:57:33;;;;;;;;;;;15.60;62.90;;;;;;6219126;23;19912;-92
2021/12/16 04:59:58;;;;;;;;;;;15.60;62.70;;;;;;6193826;23;19952;-92
2021/12/16 05:02:24;;;;;;;;;;;15.60;62.70;;;;;;6192081;23;20236;-92
2021/12/16 05:04:51;;;;;;;;;;;15.60;62.60;;;;;;6194706;23;19915;-91
2021/12/16 05:07:17;;;;;;;;;;;15.60;62.70;;;;;;6194366;23;19963;-91
2021/12/16 05:12:10;;;;;;;;;;;15.60;62.60;;;;;;6219476;23;19912;-91
2021/12/16 05:14:36;;;;;;;;;;;15.60;62.60;;;;;;6193456;23;19931;-91
2021/12/16 05:17:06;;;;;;;;;;;15.60;62.60;;;;;;6219454;23;19908;-92
2021/12/16 05:19:31;;;;;;;;;;;15.60;62.40;;;;;;6217698;23;19922;-90
2021/12/16 05:24:14;;;;;;;;;;;15.60;62.70;;;;;;6192181;23;19912;-91
2021/12/16 05:24:42;;;;;;;;;;;15.60;62.50;;;;;;6218720;23;19982;-91
2021/12/16 05:27:09;;;;;;;;;;;15.60;62.80;;;;;;6192126;23;20004;-91
2021/12/16 05:29:35;;;;;;;;;;;15.50;62.70;;;;;;6220329;23;19927;-93
2021/12/16 05:32:01;;;;;;;;;;;15.50;62.90;;;;;;6219205;23;19986;-91
2021/12/16 05:34:26;;;;;;;;;;;15.50;62.90;;;;;;6218526;23;19931;-92
2021/12/16 05:36:52;;;;;;;;;;;15.50;62.80;;;;;;6193303;23;19908;-91
2021/12/16 05:39:18;;;;;;;;;;;15.50;62.90;;;;;;6192472;23;19919;-91
2021/12/16 05:41:43;;;;;;;;;;;15.50;63.00;;;;;;6193301;23;19918;-91
2021/12/16 05:44:09;;;;;;;;;;;15.50;63.00;;;;;;6193714;23;19908;-92
2021/12/16 05:46:35;;;;;;;;;;;15.60;62.90;;;;;;6221074;23;19970;-91
2021/12/16 05:49:02;;;;;;;;;;;15.60;62.70;;;;;;6193407;23;19934;-91
2021/12/16 05:51:29;;;;;;;;;;;15.60;62.60;;;;;;6194423;23;19908;-91
2021/12/16 05:53:55;;;;;;;;;;;15.60;62.70;;;;;;6217874;23;19920;-92
2021/12/16 05:56:21;;;;;;;;;;;15.60;62.60;;;;;;6192666;23;19964;-90
2021/12/16 05:58:47;;;;;;;;;;;15.60;62.50;;;;;;6194306;23;19907;-92
2021/12/16 06:01:14;;;;;;;;;;;15.60;62.70;;;;;;6217581;23;19923;-91
2021/12/16 06:03:40;;;;;;;;;;;15.60;62.80;;;;;;6193853;23;19907;-91
2021/12/16 06:06:05;;;;;;;;;;;15.60;62.70;;;;;;6218788;23;19911;-92
2021/12/16 06:08:31;;;;;;;;;;;15.60;62.80;;;;;;6219402;23;19911;-92
2021/12/16 06:13:42;;;;;;;;;;;15.70;62.80;;;;;;6227793;23;20261;-91
2021/12/16 06:27:10;;;;;;;;;;;15.70;62.80;;;;;;6221167;23;19999;-92
2021/12/16 06:29:36;;;;;;;;;;;15.70;62.80;;;;;;6217621;23;19966;-92
2021/12/16 06:32:02;;;;;;;;;;;15.80;62.90;;;;;;6192006;23;19912;-91
2021/12/16 06:34:28;;;;;;;;;;;15.80;62.70;;;;;;6193579;23;19911;-93
2021/12/16 06:37:00;;;;;;;;;;;15.80;62.80;;;;;;6192361;23;19967;-92
2021/12/16 06:39:25;;;;;;;;;;;15.80;62.60;;;;;;6221361;23;19908;-92
2021/12/16 06:41:52;;;;;;;;;;;15.80;62.60;;;;;;6221180;23;20283;-92
2021/12/16 06:44:26;;;;;;;;;;;15.80;62.70;;;;;;6194627;23;19931;-91
2021/12/16 06:46:57;;;;;;;;;;;15.80;62.70;;;;;;6220806;23;19939;-92
2021/12/16 06:49:23;;;;;;;;;;;15.80;62.60;;;;;;6222010;23;19904;-92
2021/12/16 06:51:57;;;;;;;;;;;15.80;62.60;;;;;;6193768;23;19912;-92
2021/12/16 06:54:32;;;;;;;;;;;15.80;62.60;;;;;;6192771;23;19919;-92
2021/12/16 06:59:28;;;;;;;;;;;15.80;62.70;;;;;;6219001;23;19986;-91
2021/12/16 07:02:32;;;;;;;;;;;15.80;62.50;;;;;;6192831;23;20252;-92
2021/12/16 07:04:43;;;;;;;;;;;15.80;62.60;;;;;;6219309;23;19922;-91
2021/12/16 07:07:09;;;;;;;;;;;15.80;62.50;;;;;;6192656;23;19911;-93
2021/12/16 07:09:35;;;;;;;;;;;15.80;62.70;;;;;;6193358;23;19931;-92
2021/12/16 07:12:01;;;;;;;;;;;15.80;62.80;;;;;;6220801;23;20248;-92
2021/12/16 07:14:36;;;;;;;;;;;15.80;62.60;;;;;;6194990;23;19919;-92
2021/12/16 07:17:09;;;;;;;;;;;15.80;62.50;;;;;;6219544;23;19991;-93
2021/12/16 07:19:35;;;;;;;;;;;15.70;62.60;;;;;;6194454;23;20296;-94
2021/12/16 07:22:02;;;;;;;;;;;15.70;62.60;;;;;;6219131;23;19904;-93
2021/12/16 07:24:27;;;;;;;;;;;15.80;62.80;;;;;;6220183;23;19959;-92
2021/12/16 07:26:53;;;;;;;;;;;15.80;62.80;;;;;;6219340;23;20481;-93
2021/12/16 07:29:18;;;;;;;;;;;15.80;62.80;;;;;;6191984;23;19916;-92
2021/12/16 07:31:44;;;;;;;;;;;15.80;62.80;;;;;;6219431;23;19908;-92
2021/12/16 07:34:10;;;;;;;;;;;15.80;62.70;;;;;;6168754;23;20035;-91
2021/12/16 07:36:40;;;;;;;;;;;15.90;62.60;;;;;;6167151;23;22187;-91
2021/12/16 07:39:07;;;;;;;;;;;15.90;62.70;;;;;;6218983;23;19982;-90
2021/12/16 07:41:34;;;;;;;;;;;16.00;62.70;;;;;;6192672;23;19912;-92
2021/12/16 07:44:10;;;;;;;;;;;16.00;62.70;;;;;;6193064;23;19931;-92
2021/12/16 07:46:55;;;;;;;;;;;16.00;62.50;;;;;;6169553;23;20050;-90
2021/12/16 07:49:23;;;;;;;;;;;16.00;62.40;;;;;;6221039;23;20202;-91
2021/12/16 07:51:48;;;;;;;;;;;16.00;62.40;;;;;;6217614;23;19955;-91
2021/12/16 07:54:15;;;;;;;;;;;16.00;62.40;;;;;;6192481;23;19916;-91
2021/12/16 07:56:41;;;;;;;;;;;16.00;62.40;;;;;;6192452;23;19914;-91
2021/12/16 07:59:08;;;;;;;;;;;16.00;62.40;;;;;;6191821;23;19995;-91
2021/12/16 08:01:34;;;;;;;;;;;16.00;62.40;;;;;;6217958;23;19908;-91
2021/12/16 08:04:00;;;;;;;;;;;16.10;62.50;;;;;;6195761;23;20347;-91
2021/12/16 08:06:28;;;;;;;;;;;16.10;62.50;;;;;;6220026;23;19908;-91
2021/12/16 08:08:57;;;;;;;;;;;16.10;62.50;;;;;;6192564;23;19935;-92
2021/12/16 08:11:25;;;;;;;;;;;16.10;62.40;;;;;;6219504;23;19908;-92
2021/12/16 08:13:50;;;;;;;;;;;16.00;62.50;;;;;;6193360;23;19936;-92
2021/12/16 08:16:17;;;;;;;;;;;16.00;62.50;;;;;;6192169;23;19911;-92
2021/12/16 08:18:45;;;;;;;;;;;16.00;62.70;;;;;;6193939;23;20019;-91
2021/12/16 08:21:11;;;;;;;;;;;16.00;62.60;;;;;;6193126;23;19907;-92
2021/12/16 08:23:36;;;;;;;;;;;16.00;62.60;;;;;;6193228;23;20291;-93
2021/12/16 08:26:02;;;;;;;;;;;16.00;62.70;;;;;;6218289;23;19908;-92
2021/12/16 08:28:28;;;;;;;;;;;15.90;62.80;;;;;;6218806;23;19916;-92
2021/12/16 08:30:53;;;;;;;;;;;15.90;63.00;;;;;;6192926;23;19904;-92
2021/12/16 08:33:19;;;;;;;;;;;15.90;63.10;;;;;;6217386;23;19919;-92
2021/12/16 08:35:46;;;;;;;;;;;15.80;63.10;;;;;;6192050;23;20244;-92
2021/12/16 08:38:13;;;;;;;;;;;15.80;63.00;;;;;;6193023;23;19935;-91
2021/12/16 08:40:40;;;;;;;;;;;15.80;63.20;;;;;;6169432;23;19922;-92
2021/12/16 08:43:06;;;;;;;;;;;15.80;63.30;;;;;;6220098;23;19908;-92
2021/12/16 08:45:32;;;;;;;;;;;15.80;63.40;;;;;;6194016;23;19931;-92
2021/12/16 08:47:58;;;;;;;;;;;15.80;63.40;;;;;;6217857;23;19974;-91
2021/12/16 08:50:25;;;;;;;;;;;15.80;63.50;;;;;;6216420;23;20678;-91
2021/12/16 08:52:51;;;;;;;;;;;15.80;63.60;;;;;;6218044;23;19912;-92
2021/12/16 08:55:17;;;;;;;;;;;15.80;63.70;;;;;;6192981;23;19922;-92
2021/12/16 08:57:43;;;;;;;;;;;15.80;63.60;;;;;;6192589;23;19904;-92
2021/12/16 09:00:11;;;;;;;;;;;15.80;63.70;;;;;;6219989;23;19927;-91
2021/12/16 09:02:39;;;;;;;;;;;15.90;63.60;;;;;;6217816;23;19904;-91
2021/12/16 09:05:05;;;;;;;;;;;16.00;63.60;;;;;;6192753;23;19920;-92
2021/12/16 09:07:31;;;;;;;;;;;16.00;63.60;;;;;;6191021;23;19904;-92
2021/12/16 09:09:57;;;;;;;;;;;16.10;63.70;;;;;;6191870;23;19912;-91
2021/12/16 09:14:58;;;;;;;;;;;16.10;63.20;;;;;;6219580;23;19918;-91
2021/12/16 09:17:24;;;;;;;;;;;16.20;63.40;;;;;;6191530;23;20486;-91
2021/12/16 09:19:52;;;;;;;;;;;16.20;63.30;;;;;;6218975;23;19916;-91
2021/12/16 09:22:18;;;;;;;;;;;16.30;63.50;;;;;;6192701;23;20332;-92
2021/12/16 09:24:47;;;;;;;;;;;16.30;63.40;;;;;;6218866;23;19896;-92
2021/12/16 09:27:13;;;;;;;;;;;16.40;63.20;;;;;;6191424;23;19912;-90
2021/12/16 09:29:38;;;;;;;;;;;16.50;63.50;;;;;;6192151;23;19908;-90
2021/12/16 09:32:05;;;;;;;;;;;16.70;63.60;;;;;;6191305;23;20239;-91
2021/12/16 09:34:32;;;;;;;;;;;16.80;63.60;;;;;;6218331;23;19907;-91
2021/12/16 09:36:57;;;;;;;;;;;17.00;63.70;;;;;;6191800;23;19919;-91
2021/12/16 09:39:25;;;;;;;;;;;17.20;63.60;;;;;;6219164;23;20217;-90
2021/12/16 09:41:51;;;;;;;;;;;17.20;63.20;;;;;;6191709;23;19987;-91
2021/12/16 09:44:18;;;;;;;;;;;17.30;63.20;;;;;;6219221;23;20336;-92
2021/12/16 09:46:46;;;;;;;;;;;17.30;63.10;;;;;;6192492;23;19892;-91
2021/12/16 09:49:12;;;;;;;;;;;17.30;62.80;;;;;;6218036;23;20281;-91
2021/12/16 09:51:41;;;;;;;;;;;17.30;62.80;;;;;;6190993;23;19958;-91
2021/12/16 09:54:09;;;;;;;;;;;17.40;62.80;;;;;;6191213;23;20321;-93
2021/12/16 09:56:36;;;;;;;;;;;17.40;62.90;;;;;;6191311;23;19970;-92
2021/12/16 09:59:03;;;;;;;;;;;17.50;63.00;;;;;;6191952;23;19916;-91
2021/12/16 10:01:28;;;;;;;;;;;17.50;62.80;;;;;;6191595;23;19912;-92
2021/12/16 10:04:00;;;;;;;;;;;17.60;62.70;;;;;;6191361;23;20380;-92
2021/12/16 10:06:26;;;;;;;;;;;17.60;62.80;;;;;;6179626;23;20597;-93
2021/12/16 10:08:51;;;;;;;;;;;17.70;62.30;;;;;;6191387;23;19919;-92
2021/12/16 10:11:17;;;;;;;;;;;17.70;62.40;;;;;;6189986;23;19908;-92
2021/12/16 10:13:48;;;;;;;;;;;17.70;62.40;;;;;;6190868;23;20240;-92
2021/12/16 10:18:58;;;;;;;;;;;17.70;62.40;;;;;;6217910;23;20285;-93
2021/12/16 10:21:24;;;;;;;;;;;17.70;62.40;;;;;;6190464;23;19946;-93
2021/12/16 10:23:51;;;;;;;;;;;17.70;62.30;;;;;;6191065;23;19943;-92
2021/12/16 10:26:18;;;;;;;;;;;17.70;62.30;;;;;;6217865;23;19911;-93
2021/12/16 10:28:45;;;;;;;;;;;17.70;61.70;;;;;;6217184;23;19912;-91
2021/12/16 10:31:12;;;;;;;;;;;17.70;62.00;;;;;;6214705;23;20014;-91
2021/12/16 10:33:40;;;;;;;;;;;17.70;62.00;;;;;;6190793;23;20683;-92
2021/12/16 10:36:11;;;;;;;;;;;17.60;62.00;;;;;;6189855;23;19903;-91
2021/12/16 10:38:40;;;;;;;;;;;17.70;62.00;;;;;;6190471;23;19959;-92
2021/12/16 10:41:07;;;;;;;;;;;17.60;61.80;;;;;;6190908;23;20280;-92
2021/12/16 10:43:41;;;;;;;;;;;17.60;61.70;;;;;;6220627;23;19916;-92
2021/12/16 10:46:12;;;;;;;;;;;17.60;62.00;;;;;;6193992;23;19954;-92
2021/12/16 10:48:41;;;;;;;;;;;17.50;62.20;;;;;;6218084;23;20383;-91
2021/12/16 10:51:09;;;;;;;;;;;17.50;62.20;;;;;;6193367;23;19955;-92
2021/12/16 10:53:49;;;;;;;;;;;17.40;62.10;;;;;;6192699;23;19974;-92
2021/12/16 10:56:16;;;;;;;;;;;17.40;62.20;;;;;;6194224;23;19943;-92
2021/12/16 10:58:51;;;;;;;;;;;17.40;62.40;;;;;;6192623;23;19919;-90
2021/12/16 11:01:30;;;;;;;;;;;17.40;62.30;;;;;;6191941;23;19908;-90
2021/12/16 11:03:56;;;;;;;;;;;17.40;62.50;;;;;;6192902;23;20240;-91
2021/12/16 11:06:25;;;;;;;;;;;17.40;62.50;;;;;;6217607;23;19904;-91
2021/12/16 11:08:51;;;;;;;;;;;17.40;62.40;;;;;;6219621;23;19991;-91
2021/12/16 11:11:24;;;;;;;;;;;17.30;62.50;;;;;;6192966;23;19989;-93
2021/12/16 11:13:51;;;;;;;;;;;17.30;62.40;;;;;;6193222;23;19912;-90
2021/12/16 11:16:29;;;;;;;;;;;17.30;62.50;;;;;;6192355;23;20224;-92
2021/12/16 11:18:54;;;;;;;;;;;17.20;62.50;;;;;;6193130;23;19916;-92
2021/12/16 11:21:20;;;;;;;;;;;17.20;62.70;;;;;;6193227;23;19927;-92
2021/12/16 11:23:45;;;;;;;;;;;17.10;62.80;;;;;;6192382;23;19984;-92
2021/12/16 11:26:13;;;;;;;;;;;17.10;62.90;;;;;;6191803;23;19904;-91
2021/12/16 11:28:40;;;;;;;;;;;17.10;63.20;;;;;;6220175;23;19912;-92
2021/12/16 11:31:17;;;;;;;;;;;17.20;63.40;;;;;;6217576;23;19911;-90
2021/12/16 11:34:02;;;;;;;;;;;17.20;63.70;;;;;;6219969;23;19915;-91
2021/12/16 11:36:30;;;;;;;;;;;17.20;63.80;;;;;;6194401;23;20564;-91
2021/12/16 11:39:02;;;;;;;;;;;17.30;63.80;;;;;;6219110;23;19919;-92
2021/12/16 11:41:29;;;;;;;;;;;17.40;63.90;;;;;;6195409;23;19931;-91
2021/12/16 11:43:57;;;;;;;;;;;17.40;63.90;;;;;;6192684;23;19912;-92
2021/12/16 11:46:40;;;;;;;;;;;17.40;63.90;;;;;;6191370;23;20058;-92
2021/12/16 11:49:10;;;;;;;;;;;17.50;63.70;;;;;;6192948;23;19924;-91
2021/12/16 11:52:05;;;;;;;;;;;17.50;63.20;;;;;;6218664;23;19908;-92
2021/12/16 11:54:34;;;;;;;;;;;17.50;63.00;;;;;;6184341;23;19923;-91
2021/12/16 11:57:12;;;;;;;;;;;17.50;62.90;;;;;;6192747;23;19908;-91
2021/12/16 11:59:43;;;;;;;;;;;17.50;62.90;;;;;;6194058;23;19920;-92
2021/12/16 12:02:23;;;;;;;;;;;17.50;63.10;;;;;;6193755;23;19908;-91
2021/12/16 12:04:48;;;;;;;;;;;17.70;63.10;;;;;;6220454;23;19912;-92
2021/12/16 12:07:14;;;;;;;;;;;17.60;63.00;;;;;;6192537;23;20360;-92
2021/12/16 12:09:44;;;;;;;;;;;17.70;62.70;;;;;;6191813;23;19912;-91
2021/12/16 12:12:10;;;;;;;;;;;17.70;62.40;;;;;;6190851;23;19950;-91
2021/12/16 12:14:36;;;;;;;;;;;17.70;62.50;;;;;;6191314;23;19912;-91
2021/12/16 12:17:07;;;;;;;;;;;17.70;62.70;;;;;;6192381;23;19935;-91
2021/12/16 12:19:33;;;;;;;;;;;17.80;62.80;;;;;;6219474;23;19915;-91
2021/12/16 12:22:00;;;;;;;;;;;17.80;62.80;;;;;;6220872;23;20034;-92
2021/12/16 12:24:33;;;;;;;;;;;17.80;62.90;;;;;;6219747;23;19912;-92
2021/12/16 12:26:59;;;;;;;;;;;17.80;62.90;;;;;;6193941;23;19908;-92
2021/12/16 12:29:35;;;;;;;;;;;18.00;63.10;;;;;;6219341;23;19959;-91
2021/12/16 12:32:01;;;;;;;;;;;18.10;63.10;;;;;;6217214;23;19908;-92
2021/12/16 12:34:29;;;;;;;;;;;18.20;62.80;;;;;;6192095;23;19938;-92
2021/12/16 12:36:56;;;;;;;;;;;18.20;62.80;;;;;;6192764;23;19919;-92
2021/12/16 12:39:23;;;;;;;;;;;18.30;62.90;;;;;;6220243;23;19916;-92
2021/12/16 12:41:49;;;;;;;;;;;18.30;62.60;;;;;;6193798;23;19910;-92
2021/12/16 12:44:14;;;;;;;;;;;18.40;62.40;;;;;;6218214;23;19964;-92
2021/12/16 12:46:42;;;;;;;;;;;18.40;62.40;;;;;;6218300;23;19935;-92
2021/12/16 12:49:12;;;;;;;;;;;18.40;62.40;;;;;;6217131;23;19912;-92
2021/12/16 12:51:39;;;;;;;;;;;18.50;62.30;;;;;;6190730;23;19910;-92
2021/12/16 12:54:23;;;;;;;;;;;18.50;62.10;;;;;;6190687;23;19926;-93
2021/12/16 12:56:50;;;;;;;;;;;18.60;61.90;;;;;;6216810;23;19904;-92
2021/12/16 12:59:16;;;;;;;;;;;18.50;61.70;;;;;;6217022;23;19916;-92
2021/12/16 13:01:47;;;;;;;;;;;18.60;61.90;;;;;;6190395;23;19935;-92
2021/12/16 13:04:24;;;;;;;;;;;18.60;62.10;;;;;;6217584;23;19916;-92
2021/12/16 13:06:49;;;;;;;;;;;18.60;62.10;;;;;;6190155;23;19978;-93
2021/12/16 13:09:26;;;;;;;;;;;18.60;61.60;;;;;;6217569;23;19916;-92
2021/12/16 13:11:53;;;;;;;;;;;18.60;61.60;;;;;;6190339;23;19908;-93
2021/12/16 13:14:39;;;;;;;;;;;18.60;61.70;;;;;;6190647;23;20281;-93
2021/12/16 13:17:32;;;;;;;;;;;18.60;61.70;;;;;;6190494;23;20683;-92
2021/12/16 13:28:26;;;;;;;;;;;18.50;61.80;;;;;;6218167;23;20288;-93
2021/12/16 13:31:03;;;;;;;;;;;18.50;61.90;;;;;;6191843;23;20313;-93
2021/12/16 13:33:43;;;;;;;;;;;18.50;61.80;;;;;;6191872;23;19991;-93
2021/12/16 13:36:26;;;;;;;;;;;18.50;61.90;;;;;;6192586;23;20512;-89
2021/12/16 13:38:54;;;;;;;;;;;18.50;61.90;;;;;;6189938;23;19982;-89
2021/12/16 13:41:22;;;;;;;;;;;18.50;61.90;;;;;;6214149;23;19938;-89
2021/12/16 13:43:54;;;;;;;;;;;18.50;61.90;;;;;;6189586;23;19912;-89
2021/12/16 13:46:44;;;;;;;;;;;18.50;61.80;;;;;;6189458;23;19904;-89
2021/12/16 14:03:27;;;;;;;;;;;18.30;61.70;;;;;;6216948;23;19908;-88
2021/12/16 14:08:58;;;;;;;;;;;18.30;61.80;;;;;;6220731;23;19912;-89
2021/12/16 14:14:45;;;;;;;;;;;18.30;61.70;;;;;;6187032;23;19986;-89
2021/12/16 14:17:45;;;;;;;;;;;18.30;61.70;;;;;;6215023;23;19927;-89
2021/12/16 14:23:13;;;;;;;;;;;18.20;61.70;;;;;;6216461;23;20057;-89
2021/12/16 14:31:37;;;;;;;;;;;18.20;61.70;;;;;;6217857;23;19951;-89
2021/12/16 14:34:50;;;;;;;;;;;18.10;61.70;;;;;;6216165;23;19908;-88
2021/12/16 14:42:25;;;;;;;;;;;18.10;61.60;;;;;;6216481;23;20224;-90
2021/12/16 14:48:03;;;;;;;;;;;18.00;61.50;;;;;;6226096;23;19931;-89
2021/12/16 14:50:22;;;;;;;;;;;18.00;61.40;;;;;;6215487;23;19918;-90
2021/12/16 14:52:51;;;;;;;;;;;17.90;61.30;;;;;;6188282;23;19960;-90
2021/12/16 14:55:18;;;;;;;;;;;17.90;61.30;;;;;;6187815;23;19916;-90
2021/12/16 14:57:45;;;;;;;;;;;17.90;61.50;;;;;;6189995;23;19904;-91
2021/12/16 15:00:13;;;;;;;;;;;17.80;61.40;;;;;;6189267;23;19998;-90
2021/12/16 15:02:41;;;;;;;;;;;17.80;61.50;;;;;;6189394;23;20245;-91
2021/12/16 15:05:35;;;;;;;;;;;17.80;61.40;;;;;;6217038;23;19908;-90
2021/12/16 15:08:19;;;;;;;;;;;17.80;61.50;;;;;;6190282;23;20293;-90
2021/12/16 15:10:44;;;;;;;;;;;17.70;61.50;;;;;;6191379;23;20221;-90
2021/12/16 15:13:25;;;;;;;;;;;17.70;61.20;;;;;;6216680;23;19912;-90
2021/12/16 15:38:10;;;;;;;;;;;17.40;61.70;;;;;;6209005;23;20558;-91
2021/12/16 15:42:57;;;;;;;;;;;17.40;61.70;;;;;;6221978;23;19916;-95
2021/12/16 15:45:30;;;;;;;;;;;17.50;61.70;;;;;;6196638;23;19911;-93
2021/12/16 15:48:02;;;;;;;;;;;17.40;61.50;;;;;;6225957;23;19908;-95
2021/12/16 15:50:33;;;;;;;;;;;17.40;61.50;;;;;;6196816;23;19911;-94
2021/12/16 15:52:59;;;;;;;;;;;17.40;61.60;;;;;;6194373;23;19936;-93
2021/12/16 15:55:28;;;;;;;;;;;17.40;61.50;;;;;;6194059;23;20643;-94
2021/12/16 15:57:58;;;;;;;;;;;17.40;61.50;;;;;;6194207;23;19904;-94
2021/12/16 16:00:25;;;;;;;;;;;17.40;61.40;;;;;;6221224;23;19916;-93
2021/12/16 16:02:53;;;;;;;;;;;17.30;61.40;;;;;;6195536;23;19911;-94
2021/12/16 16:05:19;;;;;;;;;;;17.30;61.50;;;;;;6194425;23;19908;-94
2021/12/16 16:07:45;;;;;;;;;;;17.30;61.60;;;;;;6193670;23;19923;-95
2021/12/16 16:10:11;;;;;;;;;;;17.30;61.60;;;;;;6192497;23;19908;-95
2021/12/16 16:12:37;;;;;;;;;;;17.30;61.60;;;;;;6193043;23;19908;-94
2021/12/16 16:15:16;;;;;;;;;;;17.30;61.30;;;;;;6193405;23;20339;-94
2021/12/16 16:17:53;;;;;;;;;;;17.20;61.30;;;;;;6194100;23;19908;-94
2021/12/16 16:20:19;;;;;;;;;;;17.20;61.50;;;;;;6194321;23;19939;-93
2021/12/16 16:22:46;;;;;;;;;;;17.20;61.50;;;;;;6193576;23;19912;-94
2021/12/16 16:25:12;;;;;;;;;;;17.20;61.60;;;;;;6169565;23;19908;-94
2021/12/16 16:27:38;;;;;;;;;;;17.20;61.70;;;;;;6194253;23;20010;-95
2021/12/16 16:30:05;;;;;;;;;;;17.20;61.70;;;;;;6195571;23;19915;-94
2021/12/16 16:32:51;;;;;;;;;;;17.20;61.70;;;;;;6194315;23;19908;-94
2021/12/16 16:35:16;;;;;;;;;;;17.20;61.70;;;;;;6194933;23;20301;-95
2021/12/16 16:37:42;;;;;;;;;;;17.20;61.70;;;;;;6202863;23;19966;-93
2021/12/16 16:40:09;;;;;;;;;;;17.20;61.70;;;;;;6172282;23;19912;-92
2021/12/16 16:42:38;;;;;;;;;;;17.10;61.50;;;;;;6194099;23;20270;-93
2021/12/16 16:45:04;;;;;;;;;;;17.10;61.60;;;;;;6195293;23;20929;-94
2021/12/16 16:47:46;;;;;;;;;;;17.10;61.60;;;;;;6221288;23;19944;-94
2021/12/16 16:50:12;;;;;;;;;;;17.10;61.70;;;;;;6194981;23;19904;-94
2021/12/16 16:52:40;;;;;;;;;;;17.10;61.80;;;;;;6194180;23;19912;-94
2021/12/16 16:55:05;;;;;;;;;;;17.10;61.80;;;;;;6193906;23;19935;-93
2021/12/16 16:57:32;;;;;;;;;;;17.10;61.70;;;;;;6193517;23;19908;-94
2021/12/16 16:59:59;;;;;;;;;;;17.10;61.70;;;;;;6193857;23;19912;-94
2021/12/16 17:02:30;;;;;;;;;;;17.10;61.80;;;;;;6219967;23;19927;-93
2021/12/16 17:05:01;;;;;;;;;;;17.10;61.70;;;;;;6193710;23;19919;-94
2021/12/16 17:07:28;;;;;;;;;;;17.10;61.70;;;;;;6193272;23;19908;-94
2021/12/16 17:09:53;;;;;;;;;;;17.00;61.80;;;;;;6194083;23;19912;-93
2021/12/16 17:12:19;;;;;;;;;;;17.10;61.80;;;;;;6193655;23;19915;-94
2021/12/16 17:14:53;;;;;;;;;;;17.00;61.70;;;;;;6167478;23;19912;-93
2021/12/16 17:17:25;;;;;;;;;;;17.00;61.70;;;;;;6192701;23;19912;-94
2021/12/16 17:19:50;;;;;;;;;;;17.00;61.50;;;;;;6193536;23;19998;-93
2021/12/16 17:22:22;;;;;;;;;;;17.00;61.20;;;;;;6220083;23;19904;-94
2021/12/16 17:24:49;;;;;;;;;;;16.90;61.30;;;;;;6194656;23;19904;-93
2021/12/16 17:27:19;;;;;;;;;;;16.90;61.40;;;;;;6196130;23;19931;-92
2021/12/16 17:29:50;;;;;;;;;;;16.90;61.30;;;;;;6194701;23;20076;-94
2021/12/16 17:32:29;;;;;;;;;;;16.80;61.50;;;;;;6193183;23;19904;-93
2021/12/16 17:35:06;;;;;;;;;;;16.80;61.30;;;;;;6193056;23;19908;-93
2021/12/16 17:37:34;;;;;;;;;;;16.80;61.50;;;;;;6217396;23;20313;-93
2021/12/16 17:40:01;;;;;;;;;;;16.70;61.60;;;;;;6196495;23;19916;-94
2021/12/16 17:42:33;;;;;;;;;;;16.70;61.60;;;;;;6195557;23;19912;-94
2021/12/16 17:45:05;;;;;;;;;;;16.80;61.50;;;;;;6195616;23;19939;-94
2021/12/16 17:47:33;;;;;;;;;;;16.70;61.70;;;;;;6221159;23;19979;-95
2021/12/16 17:49:58;;;;;;;;;;;16.80;61.80;;;;;;6222781;23;19912;-93
2021/12/16 17:52:32;;;;;;;;;;;16.80;61.70;;;;;;6194583;23;20232;-93
2021/12/16 17:54:59;;;;;;;;;;;16.80;61.60;;;;;;6193059;23;19911;-92
2021/12/16 17:57:54;;;;;;;;;;;16.80;61.70;;;;;;6193009;23;19943;-92
2021/12/16 18:00:20;;;;;;;;;;;16.70;61.80;;;;;;6187163;23;19987;-94